Time;durP1;ratioP1;P1;durP2;ratioP2;P2;SDS_P1;SDS_P2;PMS_P1;PMS_P2;Temp;Humidity;BMP_temperature;BMP_pressure;BME280_temperature;BME280_humidity;BME280_pressure;Samples;Min_cycle;Max_cycle;Signal;HPM_P1;HPM_P2
2022/08/21 00:00:52;;;;;;;2.47;0.80;;;13.70;99.90;;;;;;5035980;28;20173;-92
2022/08/21 00:03:17;;;;;;;2.97;1.57;;;13.80;99.90;;;;;;5035671;28;20196;-92
2022/08/21 00:05:46;;;;;;;1.77;1.67;;;13.90;99.90;;;;;;5035643;28;20207;-94
2022/08/21 00:08:12;;;;;;;3.17;1.00;;;13.80;99.90;;;;;;5034282;28;20167;-92
2022/08/21 00:10:40;;;;;;;2.77;0.77;;;13.70;99.90;;;;;;5017209;28;20439;-92
2022/08/21 00:13:06;;;;;;;1.80;0.90;;;13.70;99.90;;;;;;5037648;28;20602;-91
2022/08/21 00:15:34;;;;;;;1.93;1.73;;;13.60;99.90;;;;;;5035114;28;20756;-89
2022/08/21 00:18:00;;;;;;;2.33;0.90;;;13.60;99.90;;;;;;5034468;28;20422;-90
2022/08/21 00:20:26;;;;;;;2.23;1.10;;;13.50;99.90;;;;;;5034268;28;20767;-92
2022/08/21 00:22:52;;;;;;;3.67;1.13;;;13.60;99.90;;;;;;5049326;28;20420;-89
2022/08/21 00:25:19;;;;;;;2.57;1.63;;;13.60;99.90;;;;;;5033117;28;20465;-88
2022/08/21 00:27:46;;;;;;;4.20;1.50;;;13.60;99.90;;;;;;5049599;28;20291;-90
2022/08/21 00:30:13;;;;;;;3.37;1.53;;;13.50;99.90;;;;;;5034589;28;20420;-89
2022/08/21 00:32:40;;;;;;;2.43;1.40;;;13.40;99.90;;;;;;5034142;28;20415;-87
2022/08/21 00:35:12;;;;;;;2.00;0.90;;;13.30;99.90;;;;;;5033718;28;20470;-87
2022/08/21 00:37:38;;;;;;;2.47;0.50;;;13.30;99.90;;;;;;5033259;28;20757;-85
2022/08/21 00:40:09;;;;;;;2.97;1.20;;;13.30;99.90;;;;;;5015850;28;20417;-86
2022/08/21 00:42:34;;;;;;;3.00;1.27;;;13.30;99.90;;;;;;5034872;28;20493;-84
2022/08/21 00:45:01;;;;;;;2.70;1.70;;;13.30;99.90;;;;;;5040903;28;20509;-89
2022/08/21 00:47:26;;;;;;;2.40;1.57;;;13.30;99.90;;;;;;5050363;28;20553;-85
2022/08/21 00:49:52;;;;;;;3.30;1.73;;;13.20;99.90;;;;;;5035284;28;20472;-90
2022/08/21 00:52:21;;;;;;;2.93;1.53;;;13.10;99.90;;;;;;5035660;28;20177;-86
2022/08/21 00:54:49;;;;;;;1.77;0.60;;;13.10;99.90;;;;;;5032731;28;20186;-87
2022/08/21 00:57:23;;;;;;;2.90;0.90;;;13.10;99.90;;;;;;5033262;28;20463;-87
2022/08/21 00:59:53;;;;;;;1.47;0.83;;;13.10;99.90;;;;;;5033327;28;20412;-89
2022/08/21 01:02:19;;;;;;;2.00;0.90;;;13.10;99.90;;;;;;5032475;28;20414;-88
2022/08/21 01:04:46;;;;;;;2.60;1.10;;;13.10;99.90;;;;;;5033051;28;20449;-88
2022/08/21 01:07:12;;;;;;;3.10;0.70;;;13.20;99.90;;;;;;5033159;28;20770;-87
2022/08/21 01:09:38;;;;;;;4.00;1.23;;;13.30;99.90;;;;;;5032366;28;20445;-88
2022/08/21 01:12:04;;;;;;;2.13;1.27;;;13.50;99.90;;;;;;5033335;28;20421;-87
2022/08/21 01:14:30;;;;;;;2.90;1.67;;;13.50;99.90;;;;;;5033213;28;20410;-86
2022/08/21 01:16:57;;;;;;;3.40;1.87;;;13.50;99.90;;;;;;5033178;28;20417;-88
2022/08/21 01:19:24;;;;;;;2.10;0.90;;;13.60;99.90;;;;;;5033236;28;20249;-85
2022/08/21 01:21:51;;;;;;;1.90;0.60;;;13.50;99.90;;;;;;5015386;28;20487;-86
2022/08/21 01:24:17;;;;;;;2.43;1.23;;;13.40;99.90;;;;;;5032674;28;20479;-86
2022/08/21 01:26:43;;;;;;;2.13;1.10;;;13.20;99.90;;;;;;5033007;28;20500;-86
2022/08/21 01:29:30;;;;;;;3.10;1.67;;;13.10;99.90;;;;;;5032985;28;20217;-85
2022/08/21 01:31:56;;;;;;;1.80;0.93;;;13.10;99.90;;;;;;5033084;28;20421;-86
2022/08/21 01:34:22;;;;;;;2.37;1.20;;;13.20;99.90;;;;;;5015482;28;20421;-86
2022/08/21 01:36:47;;;;;;;1.80;1.30;;;13.20;99.90;;;;;;5032886;28;20171;-89
2022/08/21 01:39:14;;;;;;;2.43;1.07;;;13.10;99.90;;;;;;5032602;28;20171;-86
2022/08/21 01:41:39;;;;;;;2.37;1.57;;;13.00;99.90;;;;;;5032981;28;20179;-86
2022/08/21 01:44:05;;;;;;;2.60;1.80;;;13.10;99.90;;;;;;5015243;28;21045;-87
2022/08/21 01:46:30;;;;;;;2.90;1.00;;;13.20;99.90;;;;;;5015124;28;20223;-87
2022/08/21 01:48:56;;;;;;;2.60;1.40;;;13.10;99.90;;;;;;5015242;28;20278;-87
2022/08/21 01:51:22;;;;;;;1.80;1.60;;;13.10;99.90;;;;;;5047645;28;20250;-85
2022/08/21 01:53:47;;;;;;;2.40;1.33;;;13.10;99.90;;;;;;5052095;28;20178;-87
2022/08/21 01:56:15;;;;;;;2.73;1.50;;;13.10;99.90;;;;;;5054346;28;20178;-89
2022/08/21 01:58:42;;;;;;;1.73;1.13;;;13.00;99.90;;;;;;5056655;28;20166;-89
2022/08/21 02:01:09;;;;;;;3.40;1.57;;;13.10;99.90;;;;;;5055173;28;20957;-89
2022/08/21 02:03:34;;;;;;;4.83;1.37;;;13.00;99.90;;;;;;5056358;28;20772;-88
2022/08/21 02:06:00;;;;;;;3.83;1.87;;;12.90;99.90;;;;;;5056620;28;20428;-86
2022/08/21 02:08:28;;;;;;;3.17;1.40;;;12.90;99.90;;;;;;5056338;28;20201;-88
2022/08/21 02:10:53;;;;;;;5.53;2.33;;;12.80;99.90;;;;;;5055449;28;20227;-89
2022/08/21 02:13:19;;;;;;;2.13;0.67;;;12.80;99.90;;;;;;5056363;28;20412;-86
2022/08/21 02:15:45;;;;;;;3.53;1.83;;;12.80;99.90;;;;;;5054983;28;20749;-87
2022/08/21 02:18:11;;;;;;;2.50;1.10;;;12.70;99.90;;;;;;5056365;28;20231;-87
2022/08/21 02:20:41;;;;;;;2.20;1.37;;;12.60;99.90;;;;;;5056405;28;20170;-89
2022/08/21 02:23:08;;;;;;;2.50;1.40;;;12.70;99.90;;;;;;5055981;28;20174;-91
2022/08/21 02:25:34;;;;;;;3.43;1.93;;;12.70;99.90;;;;;;5038507;28;20487;-86
2022/08/21 02:28:04;;;;;;;2.57;1.27;;;12.70;99.90;;;;;;5056043;28;20450;-88
2022/08/21 02:30:35;;;;;;;3.70;1.60;;;12.60;99.90;;;;;;5054750;28;20447;-86
2022/08/21 02:33:01;;;;;;;2.07;1.40;;;12.60;99.90;;;;;;5055825;28;20473;-88
2022/08/21 02:35:27;;;;;;;2.70;1.23;;;12.60;99.90;;;;;;5055979;28;20499;-89
2022/08/21 02:38:01;;;;;;;2.53;2.10;;;12.50;99.90;;;;;;5054498;28;20420;-87
2022/08/21 02:40:31;;;;;;;2.70;1.53;;;12.50;99.90;;;;;;5055967;28;20890;-89
2022/08/21 02:42:57;;;;;;;2.03;1.00;;;12.50;99.90;;;;;;5054651;28;21126;-87
2022/08/21 02:45:23;;;;;;;1.90;1.00;;;12.40;99.90;;;;;;5055790;28;20572;-88
2022/08/21 02:47:55;;;;;;;2.17;1.73;;;12.50;99.90;;;;;;5054517;28;20926;-90
2022/08/21 02:50:28;;;;;;;3.33;2.00;;;12.40;99.90;;;;;;5055201;28;20240;-88
2022/08/21 02:52:54;;;;;;;2.73;1.07;;;12.50;99.90;;;;;;5037474;28;20420;-88
2022/08/21 02:55:21;;;;;;;3.90;2.00;;;12.60;99.90;;;;;;5055635;28;20413;-87
2022/08/21 02:57:47;;;;;;;1.63;0.97;;;12.50;99.90;;;;;;5037469;28;20412;-87
2022/08/21 03:00:14;;;;;;;2.40;1.30;;;12.40;99.90;;;;;;5055221;28;20452;-89
2022/08/21 03:02:40;;;;;;;3.70;1.73;;;12.40;99.90;;;;;;5037419;28;20482;-87
2022/08/21 03:05:07;;;;;;;2.07;1.60;;;12.40;99.90;;;;;;5055439;28;20473;-88
2022/08/21 03:07:34;;;;;;;2.00;1.10;;;12.50;99.90;;;;;;5054823;28;20170;-88
2022/08/21 03:09:59;;;;;;;1.47;1.20;;;12.40;99.90;;;;;;5055368;28;20407;-88
2022/08/21 03:12:25;;;;;;;3.53;1.70;;;12.40;99.90;;;;;;5055538;28;20775;-91
2022/08/21 03:14:50;;;;;;;3.73;2.27;;;12.40;99.90;;;;;;5037439;28;20178;-86
2022/08/21 03:17:16;;;;;;;1.93;1.33;;;12.40;99.90;;;;;;5055629;28;20174;-88
2022/08/21 03:19:42;;;;;;;1.83;1.00;;;12.40;99.90;;;;;;5055328;28;20166;-87
2022/08/21 03:22:07;;;;;;;2.37;1.20;;;12.30;99.90;;;;;;5055001;28;20318;-88
2022/08/21 03:24:33;;;;;;;1.43;0.83;;;12.40;99.90;;;;;;5039406;28;20263;-89
2022/08/21 03:26:59;;;;;;;3.23;1.53;;;12.40;99.90;;;;;;5056937;28;20260;-91
2022/08/21 03:29:25;;;;;;;2.67;1.40;;;12.50;99.90;;;;;;5054809;28;20537;-91
2022/08/21 03:31:52;;;;;;;4.13;1.40;;;12.50;99.90;;;;;;5054607;28;20468;-90
2022/08/21 03:34:17;;;;;;;4.40;1.90;;;12.40;99.90;;;;;;5054554;28;20179;-92
2022/08/21 03:36:43;;;;;;;2.37;1.50;;;12.40;99.90;;;;;;5055473;28;20442;-93
2022/08/21 03:39:09;;;;;;;3.20;2.00;;;12.30;99.90;;;;;;5055814;28;20699;-88
2022/08/21 03:41:34;;;;;;;3.50;1.50;;;12.30;99.90;;;;;;5056287;28;20569;-88
2022/08/21 03:44:00;;;;;;;2.57;1.33;;;12.30;99.90;;;;;;5055556;28;20205;-87
2022/08/21 03:46:25;;;;;;;2.80;1.17;;;12.30;99.90;;;;;;5037667;28;20223;-93
2022/08/21 03:48:52;;;;;;;2.23;0.87;;;12.30;99.90;;;;;;5055278;28;20491;-92
2022/08/21 03:51:18;;;;;;;1.70;1.07;;;12.30;99.90;;;;;;5037110;28;20222;-87
2022/08/21 03:53:44;;;;;;;2.57;1.30;;;12.30;99.90;;;;;;5070336;28;20952;-91
2022/08/21 03:56:10;;;;;;;1.10;0.60;;;12.30;99.90;;;;;;5055051;28;20526;-87
2022/08/21 03:58:38;;;;;;;1.60;1.00;;;12.30;99.90;;;;;;5054645;28;20590;-87
2022/08/21 04:01:06;;;;;;;1.87;1.00;;;12.20;99.90;;;;;;5036967;28;20548;-87
2022/08/21 04:03:33;;;;;;;2.47;1.10;;;12.20;99.90;;;;;;5054642;28;20423;-87
2022/08/21 04:05:59;;;;;;;2.20;1.33;;;;;;;;;;5054140;28;20451;-87
2022/08/21 04:08:25;;;;;;;1.57;0.70;;;12.20;99.90;;;;;;5053879;28;20758;-87
2022/08/21 04:10:55;;;;;;;2.17;0.60;;;12.20;99.90;;;;;;5054181;28;20428;-87
2022/08/21 04:13:21;;;;;;;4.23;1.60;;;12.20;99.90;;;;;;5054275;28;20231;-85
2022/08/21 04:15:47;;;;;;;3.13;1.57;;;12.10;99.90;;;;;;5054154;28;20825;-85
2022/08/21 04:18:13;;;;;;;2.47;1.43;;;12.10;99.90;;;;;;5069241;28;20427;-86
2022/08/21 04:20:40;;;;;;;3.33;1.40;;;12.10;99.90;;;;;;5053968;28;20448;-86
2022/08/21 04:23:06;;;;;;;2.07;1.20;;;12.20;99.90;;;;;;5069060;28;20180;-87
2022/08/21 04:25:32;;;;;;;2.80;1.27;;;12.30;99.90;;;;;;5053912;28;20658;-87
2022/08/21 04:27:58;;;;;;;3.87;1.80;;;12.40;99.90;;;;;;5053881;28;20460;-87
2022/08/21 04:30:24;;;;;;;2.00;1.57;;;12.40;99.90;;;;;;5053977;28;20179;-87
2022/08/21 04:32:50;;;;;;;3.50;1.20;;;12.40;99.90;;;;;;5068982;28;21056;-85
2022/08/21 04:35:19;;;;;;;2.13;1.97;;;12.40;99.90;;;;;;5053407;28;20470;-85
2022/08/21 04:37:44;;;;;;;2.50;1.30;;;12.40;99.90;;;;;;5068358;28;20483;-85
2022/08/21 04:40:13;;;;;;;2.40;1.43;;;12.40;99.90;;;;;;5053366;28;20509;-85
2022/08/21 04:42:54;;;;;;;2.40;1.17;;;12.50;99.90;;;;;;5068824;28;20635;-85
2022/08/21 04:45:23;;;;;;;3.50;2.30;;;12.50;99.90;;;;;;5053270;28;20481;-85
2022/08/21 04:47:53;;;;;;;7.00;2.57;;;12.50;99.90;;;;;;5053231;28;20542;-87
2022/08/21 04:50:27;;;;;;;3.67;1.90;;;12.60;99.90;;;;;;5053264;28;20462;-87
2022/08/21 04:52:53;;;;;;;2.00;1.60;;;12.70;99.90;;;;;;5053072;28;20418;-87
2022/08/21 04:55:21;;;;;;;3.00;2.47;;;12.80;99.90;;;;;;5053412;28;20472;-85
2022/08/21 04:57:47;;;;;;;4.13;2.17;;;12.90;99.90;;;;;;5035782;28;20416;-87
2022/08/21 05:00:13;;;;;;;3.53;1.57;;;13.00;99.90;;;;;;5053500;28;20465;-88
2022/08/21 05:02:41;;;;;;;3.00;1.93;;;13.10;99.90;;;;;;5053491;28;20408;-88
2022/08/21 05:05:07;;;;;;;5.00;1.90;;;13.10;99.90;;;;;;5053662;28;20418;-87
2022/08/21 05:07:34;;;;;;;3.60;1.83;;;13.10;99.90;;;;;;5053189;28;20536;-85
2022/08/21 05:10:00;;;;;;;2.20;1.80;;;13.20;99.90;;;;;;5053539;28;20416;-86
2022/08/21 05:12:26;;;;;;;2.90;1.80;;;13.30;99.90;;;;;;5035649;28;20840;-87
2022/08/21 05:14:51;;;;;;;4.37;2.07;;;13.20;99.90;;;;;;5053463;28;20207;-87
2022/08/21 05:17:18;;;;;;;5.03;2.30;;;13.30;99.90;;;;;;5053676;28;20201;-88
2022/08/21 05:19:43;;;;;;;3.37;1.37;;;13.40;99.90;;;;;;5035459;28;20770;-87
2022/08/21 05:22:09;;;;;;;2.03;1.47;;;13.50;99.90;;;;;;5051742;28;20187;-87
2022/08/21 05:24:34;;;;;;;5.00;2.23;;;13.50;99.90;;;;;;5052090;28;20175;-87
2022/08/21 05:27:00;;;;;;;3.77;1.87;;;13.60;99.90;;;;;;5052082;28;20169;-89
2022/08/21 05:29:26;;;;;;;2.40;1.00;;;13.60;99.90;;;;;;5053560;28;20197;-89
2022/08/21 05:31:51;;;;;;;4.63;2.40;;;13.60;99.90;;;;;;5054810;28;20518;-88
2022/08/21 05:34:23;;;;;;;4.87;1.83;;;13.70;99.90;;;;;;5056037;28;20297;-87
2022/08/21 05:36:52;;;;;;;6.00;1.00;;;13.80;99.90;;;;;;5056537;28;20169;-86
2022/08/21 05:39:18;;;;;;;6.17;2.17;;;13.80;99.90;;;;;;5056967;28;20817;-86
2022/08/21 05:41:43;;;;;;;2.33;0.90;;;14.10;99.90;;;;;;5055905;28;20427;-87
2022/08/21 05:44:09;;;;;;;4.37;2.13;;;14.40;99.90;;;;;;5057074;28;20529;-85
2022/08/21 05:46:34;;;;;;;3.50;1.07;;;14.80;99.90;;;;;;5057222;28;20503;-87
2022/08/21 05:49:00;;;;;;;2.63;1.37;;;14.90;99.90;;;;;;5057207;28;20208;-86
2022/08/21 05:51:25;;;;;;;1.63;1.20;;;15.50;99.90;;;;;;5056679;28;20222;-88
2022/08/21 05:53:51;;;;;;;1.60;1.10;;;15.10;99.90;;;;;;5072194;28;20193;-88
2022/08/21 05:56:16;;;;;;;2.93;0.80;;;15.00;99.90;;;;;;5039011;28;20182;-86
2022/08/21 05:58:42;;;;;;;1.73;1.23;;;14.80;99.90;;;;;;5056702;28;20169;-87
2022/08/21 06:01:08;;;;;;;2.00;0.97;;;14.80;99.90;;;;;;5039389;28;20185;-87
2022/08/21 06:03:40;;;;;;;2.30;0.77;;;14.90;99.90;;;;;;5056638;28;20201;-87
2022/08/21 06:06:06;;;;;;;1.53;1.40;;;15.10;99.90;;;;;;5056793;28;20504;-88
2022/08/21 06:08:32;;;;;;;1.93;0.77;;;15.00;99.90;;;;;;5056610;28;20513;-88
2022/08/21 06:11:00;;;;;;;3.33;1.70;;;15.00;99.90;;;;;;5055572;28;20528;-88
2022/08/21 06:13:26;;;;;;;3.53;1.20;;;14.90;99.90;;;;;;5072247;28;20433;-88
2022/08/21 06:16:02;;;;;;;1.90;0.90;;;14.80;99.90;;;;;;5056742;28;20867;-89
2022/08/21 06:18:28;;;;;;;2.00;0.90;;;14.90;99.90;;;;;;5056932;28;20205;-87
2022/08/21 06:20:53;;;;;;;2.83;1.20;;;14.90;99.90;;;;;;5055643;28;20440;-88
2022/08/21 06:23:19;;;;;;;1.97;1.20;;;14.80;99.90;;;;;;5056189;28;20167;-90
2022/08/21 06:25:45;;;;;;;2.17;1.13;;;14.80;99.90;;;;;;5056326;28;20529;-87
2022/08/21 06:28:10;;;;;;;1.70;1.10;;;14.80;99.90;;;;;;5038396;28;20174;-88
2022/08/21 06:30:38;;;;;;;1.93;1.03;;;14.90;99.90;;;;;;5056265;28;20526;-87
2022/08/21 06:33:04;;;;;;;3.17;1.20;;;15.00;99.90;;;;;;5071740;28;20185;-88
2022/08/21 06:35:30;;;;;;;4.43;1.17;;;15.20;99.90;;;;;;5054943;28;21015;-87
2022/08/21 06:37:57;;;;;;;2.27;1.03;;;15.40;99.90;;;;;;5055889;28;20417;-89
2022/08/21 06:40:22;;;;;;;1.53;1.00;;;15.40;99.90;;;;;;5056055;28;20532;-87
2022/08/21 06:42:48;;;;;;;2.17;1.37;;;15.70;99.90;;;;;;5059285;28;20414;-93
2022/08/21 06:45:14;;;;;;;1.87;1.17;;;16.70;99.90;;;;;;5070956;28;20190;-92
2022/08/21 06:47:39;;;;;;;1.43;0.80;;;16.70;99.90;;;;;;5071025;28;20441;-91
2022/08/21 06:50:09;;;;;;;1.80;0.50;;;16.70;99.90;;;;;;5059830;28;20438;-89
2022/08/21 06:52:37;;;;;;;1.60;0.67;;;16.70;99.90;;;;;;5056272;28;20181;-87
2022/08/21 06:55:08;;;;;;;1.50;0.80;;;16.70;99.90;;;;;;5055897;28;20473;-88
2022/08/21 06:57:34;;;;;;;1.10;0.80;;;17.20;46.00;;;;;;5055812;28;20429;-88
2022/08/21 07:00:00;;;;;;;4.60;1.23;;;17.40;1.00;;;;;;5071523;28;20417;-89
2022/08/21 07:02:25;;;;;;;2.23;1.23;;;17.40;22.80;;;;;;5038006;28;20216;-88
2022/08/21 07:04:51;;;;;;;1.63;1.03;;;17.60;1.00;;;;;;5055793;28;20173;-89
2022/08/21 07:07:16;;;;;;;1.20;1.10;;;17.80;1.00;;;;;;5055736;28;20171;-90
2022/08/21 07:09:42;;;;;;;2.03;0.40;;;18.50;1.00;;;;;;5055666;28;20172;-91
2022/08/21 07:12:08;;;;;;;1.10;0.60;;;18.50;99.90;;;;;;5056231;28;20209;-93
2022/08/21 07:14:33;;;;;;;1.63;0.30;;;21.80;99.90;;;;;;5056744;28;20209;-89
2022/08/21 07:16:59;;;;;;;1.20;0.60;;;21.20;99.90;;;;;;5056096;28;20672;-91
2022/08/21 07:19:24;;;;;;;1.87;1.03;;;19.90;99.90;;;;;;5055839;28;20158;-91
2022/08/21 07:21:58;;;;;;;4.27;1.40;;;19.10;1.00;;;;;;5055365;28;20526;-87
2022/08/21 07:24:24;;;;;;;1.50;0.77;;;19.50;99.90;;;;;;5055889;28;20257;-87
2022/08/21 07:26:49;;;;;;;2.50;0.87;;;20.80;99.90;;;;;;5055427;28;20455;-88
2022/08/21 07:29:15;;;;;;;1.10;0.70;;;21.70;99.90;;;;;;5037595;28;20179;-88
2022/08/21 07:31:40;;;;;;;1.13;0.37;;;21.20;4.80;;;;;;5055068;28;20178;-88
2022/08/21 07:34:06;;;;;;;3.10;0.80;;;20.90;97.90;;;;;;5055049;28;20252;-91
2022/08/21 07:36:32;;;;;;;1.40;0.70;;;21.80;99.90;;;;;;5054922;28;20231;-92
2022/08/21 07:38:57;;;;;;;1.37;0.90;;;24.50;99.90;;;;;;5055024;28;20557;-91
2022/08/21 07:41:26;;;;;;;2.00;0.30;;;25.40;99.90;;;;;;5055036;28;20173;-85
2022/08/21 07:43:52;;;;;;;2.20;0.40;;;26.30;99.90;;;;;;5054679;28;20625;-85
2022/08/21 07:46:18;;;;;;;1.43;0.73;;;26.80;79.20;;;;;;5054598;28;20491;-87
2022/08/21 07:48:44;;;;;;;1.73;0.30;;;25.60;91.70;;;;;;5054459;28;20192;-87
2022/08/21 07:51:11;;;;;;;1.40;0.30;;;26.30;93.10;;;;;;5053784;28;20221;-85
2022/08/21 07:53:38;;;;;;;3.37;0.57;;;26.70;64.60;;;;;;5053371;28;20166;-88
2022/08/21 07:56:05;;;;;;;1.07;0.50;;;27.00;64.70;;;;;;5054349;28;20475;-86
2022/08/21 07:58:31;;;;;;;1.07;0.40;;;27.00;42.10;;;;;;5054428;28;20423;-88
2022/08/21 08:00:57;;;;;;;2.17;0.87;;;26.40;26.20;;;;;;5054218;28;20772;-87
2022/08/21 08:03:23;;;;;;;1.50;0.30;;;27.10;35.80;;;;;;5054152;28;20412;-89
2022/08/21 08:05:49;;;;;;;1.83;0.63;;;28.20;31.00;;;;;;5053675;28;20166;-86
2022/08/21 08:08:14;;;;;;;1.20;0.30;;;28.00;19.00;;;;;;5054026;28;20423;-86
2022/08/21 08:10:40;;;;;;;0.97;0.30;;;26.90;13.30;;;;;;5054226;28;20268;-89
2022/08/21 08:13:05;;;;;;;1.07;0.50;;;28.20;20.20;;;;;;5054406;28;20514;-88
2022/08/21 08:15:31;;;;;;;1.40;0.40;;;27.80;17.70;;;;;;5054500;28;20216;-87
2022/08/21 08:17:57;;;;;;;1.37;0.37;;;28.30;22.80;;;;;;5053840;28;20166;-86
2022/08/21 08:20:24;;;;;;;1.67;0.27;;;28.10;13.20;;;;;;5053714;28;20180;-87
2022/08/21 08:22:50;;;;;;;2.53;0.20;;;28.40;15.20;;;;;;5053487;28;20630;-87
2022/08/21 08:25:18;;;;;;;4.17;0.40;;;29.00;17.10;;;;;;5053638;28;20414;-89
2022/08/21 08:27:43;;;;;;;0.77;0.40;;;29.30;15.00;;;;;;5054010;28;20215;-89
2022/08/21 08:30:11;;;;;;;1.43;0.50;;;29.40;11.00;;;;;;5054826;28;20412;-91
2022/08/21 08:32:37;;;;;;;1.23;0.30;;;29.10;7.10;;;;;;5054312;28;20215;-93
2022/08/21 08:35:04;;;;;;;1.40;0.30;;;29.40;7.90;;;;;;5054473;28;20468;-92
2022/08/21 08:37:29;;;;;;;0.90;0.20;;;28.60;2.80;;;;;;5054170;28;20170;-89
2022/08/21 08:39:55;;;;;;;0.93;0.20;;;27.50;3.10;;;;;;5053966;28;20467;-89
2022/08/21 08:42:27;;;;;;;1.00;0.40;;;28.80;14.00;;;;;;5054662;28;20176;-90
2022/08/21 08:45:02;;;;;;;1.93;0.20;;;28.20;1.00;;;;;;5054944;28;20244;-88
2022/08/21 08:47:30;;;;;;;2.87;0.43;;;26.50;1.00;;;;;;5052360;28;20420;-88
2022/08/21 08:50:21;;;;;;;1.23;0.40;;;25.50;6.90;;;;;;5053290;28;20447;-88
2022/08/21 08:52:57;;;;;;;1.00;0.30;;;25.30;18.40;;;;;;5053159;28;20424;-88
2022/08/21 08:55:34;;;;;;;1.37;0.40;;;25.20;12.50;;;;;;5053353;28;20861;-88
2022/08/21 08:58:02;;;;;;;2.33;0.53;;;25.80;26.10;;;;;;5035535;28;20422;-88
2022/08/21 09:00:28;;;;;;;1.37;0.30;;;26.00;11.10;;;;;;5053179;28;20451;-87
2022/08/21 09:02:56;;;;;;;1.20;0.50;;;25.10;19.40;;;;;;5053176;28;20443;-88
2022/08/21 09:05:25;;;;;;;1.60;0.50;;;25.00;24.70;;;;;;5052936;28;20169;-89
2022/08/21 09:08:00;;;;;;;1.80;0.40;;;24.30;37.30;;;;;;5052697;28;20736;-87
2022/08/21 09:11:03;;;;;;;2.30;0.60;;;25.30;31.20;;;;;;5053022;28;20503;-87
2022/08/21 09:13:41;;;;;;;1.00;0.43;;;28.00;18.50;;;;;;5053247;28;20403;-87
2022/08/21 09:16:36;;;;;;;0.97;0.30;;;29.30;11.10;;;;;;5053185;28;20495;-88
2022/08/21 09:19:36;;;;;;;2.07;0.57;;;29.90;12.00;;;;;;5053581;28;20499;-89
2022/08/21 09:22:16;;;;;;;1.40;0.60;;;30.50;8.80;;;;;;5052665;28;20400;-88
2022/08/21 09:24:52;;;;;;;0.70;0.30;;;30.90;7.90;;;;;;5052976;28;20431;-90
2022/08/21 09:27:20;;;;;;;1.73;0.63;;;30.90;8.00;;;;;;5035232;28;20445;-88
2022/08/21 09:29:50;;;;;;;1.10;0.27;;;30.80;1.00;;;;;;5053410;28;20409;-88
2022/08/21 09:32:19;;;;;;;0.80;0.23;;;30.90;1.00;;;;;;5053347;28;20466;-89
2022/08/21 09:35:08;;;;;;;2.03;0.73;;;30.50;1.00;;;;;;5053028;28;20487;-90
2022/08/21 09:37:45;;;;;;;2.20;0.80;;;31.00;1.00;;;;;;5053660;28;20431;-91
2022/08/21 09:40:30;;;;;;;0.70;0.30;;;31.20;1.00;;;;;;5053394;28;20522;-95
2022/08/21 09:42:57;;;;;;;1.00;0.20;;;31.30;1.00;;;;;;5070525;28;20908;-93
2022/08/21 09:45:23;;;;;;;2.40;0.87;;;31.60;1.00;;;;;;5070606;28;20618;-91
2022/08/21 09:47:49;;;;;;;1.13;0.40;;;31.40;1.00;;;;;;5055990;28;20435;-92
2022/08/21 09:50:18;;;;;;;1.50;0.37;;;31.40;1.00;;;;;;5055092;28;20229;-92
2022/08/21 09:52:51;;;;;;;1.57;0.53;;;31.20;1.00;;;;;;5055365;28;20213;-92
2022/08/21 09:58:07;;;;;;;0.93;0.57;;;31.00;1.00;;;;;;5055722;28;20435;-95
2022/08/21 10:00:34;;;;;;;1.53;0.63;;;31.70;1.00;;;;;;5053803;28;20472;-95
2022/08/21 10:03:18;;;;;;;4.00;0.77;;;31.40;1.00;;;;;;5053441;28;20975;-93
2022/08/21 10:06:20;;;;;;;0.90;0.60;;;31.90;1.00;;;;;;5053665;28;20987;-92
2022/08/21 10:08:45;;;;;;;2.87;0.67;;;31.40;1.00;;;;;;5037983;28;20430;-93
2022/08/21 10:11:16;;;;;;;1.20;0.37;;;30.70;1.00;;;;;;5053764;28;20408;-93
2022/08/21 10:14:10;;;;;;;1.40;0.57;;;30.40;1.00;;;;;;5053216;28;20295;-92
2022/08/21 10:17:07;;;;;;;3.53;0.80;;;30.40;1.00;;;;;;5058501;28;20440;-92
2022/08/21 10:20:04;;;;;;;1.70;0.90;;;30.30;1.00;;;;;;5056771;28;20420;-88
2022/08/21 10:22:36;;;;;;;2.00;0.40;;;29.40;1.00;;;;;;5035457;28;20451;-92
2022/08/21 10:25:19;;;;;;;1.10;0.53;;;28.70;1.00;;;;;;5039370;28;20478;-94
2022/08/21 10:28:05;;;;;;;1.43;0.30;;;27.80;1.00;;;;;;5038146;28;20401;-93
2022/08/21 10:30:59;;;;;;;3.67;0.83;;;28.40;1.00;;;;;;5018952;28;20416;-92
2022/08/21 10:33:54;;;;;;;2.77;0.50;;;30.50;1.00;;;;;;5036415;28;20416;-90
2022/08/21 10:36:31;;;;;;;1.33;0.40;;;31.50;1.00;;;;;;5036622;28;20491;-90
2022/08/21 10:39:08;;;;;;;1.70;0.40;;;31.60;1.00;;;;;;5036605;28;20767;-91
2022/08/21 10:41:45;;;;;;;2.67;0.73;;;31.50;1.00;;;;;;5036315;28;20503;-90
2022/08/21 10:44:43;;;;;;;2.17;0.80;;;31.90;1.00;;;;;;5036176;28;20446;-89
2022/08/21 10:47:18;;;;;;;2.03;0.40;;;32.30;1.00;;;;;;5040603;28;20463;-94
2022/08/21 10:50:04;;;;;;;2.13;0.60;;;31.70;1.00;;;;;;5014730;28;20828;-93
2022/08/21 10:53:02;;;;;;;0.90;0.43;;;29.20;1.00;;;;;;4979910;28;20418;-91
2022/08/21 10:55:37;;;;;;;1.53;0.50;;;27.60;1.00;;;;;;4994512;28;20418;-93
2022/08/21 10:58:09;;;;;;;1.67;0.40;;;27.10;1.00;;;;;;4999685;28;20428;-93
2022/08/21 11:00:50;;;;;;;1.37;0.73;;;29.00;1.00;;;;;;5018174;28;20429;-94
2022/08/21 11:03:45;;;;;;;1.93;0.40;;;30.40;1.00;;;;;;4999525;28;20918;-92
2022/08/21 11:06:10;;;;;;;1.03;0.30;;;30.10;1.00;;;;;;5016165;28;20519;-93
2022/08/21 11:08:50;;;;;;;2.63;0.40;;;31.10;1.00;;;;;;5000844;28;20406;-94
2022/08/21 11:11:22;;;;;;;1.23;0.43;;;30.20;1.00;;;;;;5000546;28;20222;-93
2022/08/21 11:13:59;;;;;;;0.57;0.20;;;31.30;1.00;;;;;;5000262;28;20512;-93
2022/08/21 11:16:39;;;;;;;1.40;0.40;;;31.70;1.00;;;;;;5001248;28;20429;-91
2022/08/21 11:19:31;;;;;;;1.10;0.47;;;31.70;1.00;;;;;;5001093;28;20496;-92
2022/08/21 11:22:21;;;;;;;0.63;0.30;;;31.80;1.00;;;;;;4979341;28;20475;-93
2022/08/21 11:24:56;;;;;;;0.60;0.40;;;32.30;1.00;;;;;;4999903;28;20545;-94
2022/08/21 11:27:34;;;;;;;1.50;0.47;;;32.10;1.00;;;;;;4999915;28;20509;-92
2022/08/21 11:30:01;;;;;;;1.73;0.70;;;31.90;1.00;;;;;;5015310;28;20410;-92
2022/08/21 11:32:38;;;;;;;0.50;0.20;;;32.20;1.00;;;;;;5013919;28;20425;-90
2022/08/21 11:35:26;;;;;;;2.43;0.60;;;32.20;1.00;;;;;;5013280;28;20470;-91
2022/08/21 11:38:01;;;;;;;1.17;0.30;;;32.50;1.00;;;;;;5013069;28;20410;-92
2022/08/21 11:41:02;;;;;;;2.63;0.77;;;32.60;1.00;;;;;;5014500;28;20409;-91
2022/08/21 11:43:36;;;;;;;1.07;0.40;;;32.00;1.00;;;;;;5013346;28;20504;-91
2022/08/21 11:46:19;;;;;;;1.20;0.50;;;31.90;1.00;;;;;;5009148;28;20572;-91
2022/08/21 11:48:58;;;;;;;1.30;0.20;;;31.70;1.00;;;;;;4998027;28;20428;-94
2022/08/21 11:51:42;;;;;;;1.17;0.50;;;31.90;1.00;;;;;;5031597;28;20475;-94
2022/08/21 11:54:19;;;;;;;1.13;0.37;;;32.20;1.00;;;;;;5016745;28;20444;-92
2022/08/21 11:56:50;;;;;;;1.10;0.63;;;32.00;1.00;;;;;;5034330;28;20443;-90
2022/08/21 11:59:45;;;;;;;2.27;0.40;;;32.30;1.00;;;;;;5035570;28;20413;-91
2022/08/21 12:02:17;;;;;;;1.17;0.53;;;32.10;1.00;;;;;;5053088;28;20446;-90
2022/08/21 12:04:54;;;;;;;2.10;0.67;;;31.90;1.00;;;;;;5069177;28;21052;-90
2022/08/21 12:07:44;;;;;;;1.10;0.20;;;31.70;1.00;;;;;;5054168;28;20932;-93
2022/08/21 12:10:16;;;;;;;0.87;0.37;;;31.80;1.00;;;;;;5053519;28;20514;-91
2022/08/21 12:12:43;;;;;;;1.00;0.40;;;32.30;1.00;;;;;;5052862;28;20420;-88
2022/08/21 12:15:17;;;;;;;1.43;0.60;;;31.20;1.00;;;;;;5043362;28;20431;-93
2022/08/21 12:17:59;;;;;;;2.07;0.60;;;30.40;1.00;;;;;;5016938;28;20937;-92
2022/08/21 12:20:36;;;;;;;1.73;0.60;;;30.80;1.00;;;;;;5015843;28;20952;-91
2022/08/21 12:23:13;;;;;;;0.77;0.30;;;30.30;1.00;;;;;;5033271;28;20955;-90
2022/08/21 12:25:47;;;;;;;0.70;0.20;;;28.90;1.00;;;;;;5034904;28;20468;-90
2022/08/21 12:28:22;;;;;;;1.30;0.30;;;27.90;1.00;;;;;;5037042;28;20413;-90
2022/08/21 12:30:48;;;;;;;1.70;0.50;;;27.60;1.00;;;;;;5026138;28;20413;-87
2022/08/21 12:33:23;;;;;;;1.60;0.30;;;29.10;1.00;;;;;;5022816;28;20440;-91
2022/08/21 12:35:51;;;;;;;1.43;0.30;;;30.00;1.00;;;;;;5041796;28;20405;-91
2022/08/21 12:38:19;;;;;;;1.77;0.27;;;30.50;1.00;;;;;;5022352;28;20912;-89
2022/08/21 12:40:58;;;;;;;2.00;0.40;;;30.80;1.00;;;;;;5036635;28;20429;-91
2022/08/21 12:43:30;;;;;;;2.20;0.40;;;31.20;1.00;;;;;;5037026;28;20515;-93
2022/08/21 12:45:56;;;;;;;0.97;0.30;;;31.30;1.00;;;;;;5052292;28;20460;-94
2022/08/21 12:48:34;;;;;;;1.00;0.50;;;31.50;1.00;;;;;;5037379;28;20416;-94
2022/08/21 12:51:14;;;;;;;1.27;0.47;;;31.60;1.00;;;;;;5034817;28;20480;-94
2022/08/21 12:53:55;;;;;;;0.60;0.37;;;31.50;1.00;;;;;;5018497;28;20502;-91
2022/08/21 12:56:26;;;;;;;1.30;0.53;;;31.60;1.00;;;;;;5016912;28;20817;-91
2022/08/21 12:58:55;;;;;;;1.53;0.40;;;31.80;1.00;;;;;;5019278;28;20420;-92
2022/08/21 13:01:28;;;;;;;2.10;0.67;;;31.70;1.00;;;;;;5036343;28;20417;-90
2022/08/21 13:04:00;;;;;;;0.70;0.33;;;30.80;1.00;;;;;;5036043;28;20405;-94
2022/08/21 13:06:29;;;;;;;1.23;0.60;;;31.00;1.00;;;;;;5020491;28;20437;-94
2022/08/21 13:09:11;;;;;;;0.73;0.50;;;30.80;1.00;;;;;;5021235;28;20421;-93